Abbotsbury, United Kingdom
Current Conditions -  °F | °C
As of 8:50 AM on Thursday 27 Nov 2014 (Local Time) from EGDY Reporting Station
Moderate Fog Moderate Fog  
Wind Chill: 39°   Ceiling: Unl
Heat Index: 39°   Visibility: 0.09mi
Dew Point: 39°   Wind: 3mph
Humidity: 100%   Direction: 60°ENE
Pressure: 29.59"   Gusts: NA
Location:  50.67°N, 2.6°W
Report Text: EGDY 270850Z 06003KT 0150 FG SCT000 SCT002 04/04 Q1002 RED BECMG 2000 BR FEW005 SCT008 YLO2
Loading
Personal Weather Stations






























Interactive Weather Map New forecast layout! Learn more

10-Day Weather Forecast

Advertisements
Track Severe Weather on mobile